sensor_id;sensor_type;location;lat;lon;timestamp;pressure;altitude;pressure_sealevel;temperature
71807;BMP280;59655;42.590;23.364;2022-11-20T00:02:24;90769.31;;;16.09
71807;BMP280;59655;42.590;23.364;2022-11-20T00:04:49;90765.88;;;16.06
71807;BMP280;59655;42.590;23.364;2022-11-20T00:07:15;90765.16;;;16.06
71807;BMP280;59655;42.590;23.364;2022-11-20T00:09:40;90766.56;;;16.07
71807;BMP280;59655;42.590;23.364;2022-11-20T00:12:05;90772.47;;;16.05
71807;BMP280;59655;42.590;23.364;2022-11-20T00:14:31;90780.63;;;16.07
71807;BMP280;59655;42.590;23.364;2022-11-20T00:16:56;90791.22;;;16.05
71807;BMP280;59655;42.590;23.364;2022-11-20T00:19:22;90784.59;;;16.06
71807;BMP280;59655;42.590;23.364;2022-11-20T00:21:47;90777.06;;;16.03
71807;BMP280;59655;42.590;23.364;2022-11-20T00:24:12;90779.13;;;16.04
71807;BMP280;59655;42.590;23.364;2022-11-20T00:26:38;90764.44;;;16.05
71807;BMP280;59655;42.590;23.364;2022-11-20T00:29:03;90755.84;;;16.07
71807;BMP280;59655;42.590;23.364;2022-11-20T00:31:30;90720.25;;;16.04
71807;BMP280;59655;42.590;23.364;2022-11-20T00:33:56;90757.16;;;16.06
71807;BMP280;59655;42.590;23.364;2022-11-20T00:36:23;90765.03;;;16.04
71807;BMP280;59655;42.590;23.364;2022-11-20T00:38:56;90761.19;;;16.07
71807;BMP280;59655;42.590;23.364;2022-11-20T00:41:22;90754.47;;;16.06
71807;BMP280;59655;42.590;23.364;2022-11-20T00:43:48;90758.03;;;16.10
71807;BMP280;59655;42.590;23.364;2022-11-20T00:46:19;90764.44;;;16.05
71807;BMP280;59655;42.590;23.364;2022-11-20T00:48:44;90779.72;;;16.03
71807;BMP280;59655;42.590;23.364;2022-11-20T00:51:15;90801.03;;;16.01
71807;BMP280;59655;42.590;23.364;2022-11-20T00:53:41;90800.44;;;16.02
71807;BMP280;59655;42.590;23.364;2022-11-20T00:56:10;90802.50;;;16.04
71807;BMP280;59655;42.590;23.364;2022-11-20T00:58:38;90814.53;;;16.03
71807;BMP280;59655;42.590;23.364;2022-11-20T01:01:06;90818.19;;;16.09
71807;BMP280;59655;42.590;23.364;2022-11-20T01:03:33;90811.25;;;16.04
71807;BMP280;59655;42.590;23.364;2022-11-20T01:06:04;90817.88;;;16.03
71807;BMP280;59655;42.590;23.364;2022-11-20T01:08:31;90828.47;;;16.01
71807;BMP280;59655;42.590;23.364;2022-11-20T01:11:09;90835.69;;;15.99
71807;BMP280;59655;42.590;23.364;2022-11-20T01:13:35;90823.31;;;16.05
71807;BMP280;59655;42.590;23.364;2022-11-20T01:18:29;90809.22;;;15.91
71807;BMP280;59655;42.590;23.364;2022-11-20T01:20:54;90801.50;;;15.97
71807;BMP280;59655;42.590;23.364;2022-11-20T01:23:20;90808.47;;;16.02
71807;BMP280;59655;42.590;23.364;2022-11-20T01:25:45;90811.16;;;16.02
71807;BMP280;59655;42.590;23.364;2022-11-20T01:28:10;90778.09;;;15.98
71807;BMP280;59655;42.590;23.364;2022-11-20T01:30:36;90767.31;;;15.96
71807;BMP280;59655;42.590;23.364;2022-11-20T01:33:01;90751.72;;;15.92
71807;BMP280;59655;42.590;23.364;2022-11-20T01:35:26;90737.56;;;15.90
71807;BMP280;59655;42.590;23.364;2022-11-20T01:37:52;90758.94;;;15.90
71807;BMP280;59655;42.590;23.364;2022-11-20T01:40:17;90751.50;;;15.88
71807;BMP280;59655;42.590;23.364;2022-11-20T01:42:57;90737.91;;;15.84
71807;BMP280;59655;42.590;23.364;2022-11-20T01:48:15;90751.09;;;15.80
71807;BMP280;59655;42.590;23.364;2022-11-20T01:50:42;90734.94;;;15.78
71807;BMP280;59655;42.590;23.364;2022-11-20T01:53:11;90745.75;;;15.80
71807;BMP280;59655;42.590;23.364;2022-11-20T01:55:45;90760.97;;;15.77
71807;BMP280;59655;42.590;23.364;2022-11-20T01:58:13;90737.72;;;15.80
71807;BMP280;59655;42.590;23.364;2022-11-20T02:00:40;90771.81;;;15.79
71807;BMP280;59655;42.590;23.364;2022-11-20T02:03:09;90764.34;;;15.78
71807;BMP280;59655;42.590;23.364;2022-11-20T02:05:44;90770.88;;;15.75
71807;BMP280;59655;42.590;23.364;2022-11-20T02:08:11;90768.91;;;15.75
71807;BMP280;59655;42.590;23.364;2022-11-20T02:10:37;90779.72;;;15.77
71807;BMP280;59655;42.590;23.364;2022-11-20T02:13:03;90794.81;;;15.73
71807;BMP280;59655;42.590;23.364;2022-11-20T02:15:47;90789.59;;;15.75
71807;BMP280;59655;42.590;23.364;2022-11-20T02:18:17;90793.88;;;15.80
71807;BMP280;59655;42.590;23.364;2022-11-20T02:20:45;90794.47;;;15.78
71807;BMP280;59655;42.590;23.364;2022-11-20T02:23:16;90796.44;;;15.78
71807;BMP280;59655;42.590;23.364;2022-11-20T02:25:46;90786.44;;;15.78
71807;BMP280;59655;42.590;23.364;2022-11-20T02:28:13;90785.75;;;15.78
71807;BMP280;59655;42.590;23.364;2022-11-20T02:30:38;90782.91;;;15.87
71807;BMP280;59655;42.590;23.364;2022-11-20T02:33:03;90794.09;;;15.84
71807;BMP280;59655;42.590;23.364;2022-11-20T02:37:56;90793.19;;;15.79
71807;BMP280;59655;42.590;23.364;2022-11-20T02:40:22;90799.25;;;15.80
71807;BMP280;59655;42.590;23.364;2022-11-20T02:42:51;90789.69;;;15.77
71807;BMP280;59655;42.590;23.364;2022-11-20T02:45:17;90801.69;;;15.76
71807;BMP280;59655;42.590;23.364;2022-11-20T02:47:42;90792.16;;;15.73
71807;BMP280;59655;42.590;23.364;2022-11-20T02:50:08;90798.34;;;15.75
71807;BMP280;59655;42.590;23.364;2022-11-20T02:52:33;90803.19;;;15.79
71807;BMP280;59655;42.590;23.364;2022-11-20T02:54:58;90812.50;;;15.78
71807;BMP280;59655;42.590;23.364;2022-11-20T02:57:24;90821.78;;;15.77
71807;BMP280;59655;42.590;23.364;2022-11-20T02:59:49;90804.59;;;15.80
71807;BMP280;59655;42.590;23.364;2022-11-20T03:02:14;90815.06;;;15.76
71807;BMP280;59655;42.590;23.364;2022-11-20T03:04:40;90799.13;;;15.78
71807;BMP280;59655;42.590;23.364;2022-11-20T03:07:07;90825.38;;;15.81
71807;BMP280;59655;42.590;23.364;2022-11-20T03:09:32;90808.53;;;15.79
71807;BMP280;59655;42.590;23.364;2022-11-20T03:11:57;90806.72;;;15.70
71807;BMP280;59655;42.590;23.364;2022-11-20T03:14:23;90783.44;;;15.72
71807;BMP280;59655;42.590;23.364;2022-11-20T03:16:48;90798.69;;;15.70
71807;BMP280;59655;42.590;23.364;2022-11-20T03:19:13;90816.34;;;15.75
71807;BMP280;59655;42.590;23.364;2022-11-20T03:21:39;90832.28;;;15.73
71807;BMP280;59655;42.590;23.364;2022-11-20T03:24:05;90816.72;;;15.69
71807;BMP280;59655;42.590;23.364;2022-11-20T03:26:31;90831.38;;;15.68
71807;BMP280;59655;42.590;23.364;2022-11-20T03:28:58;90840.66;;;15.67
71807;BMP280;59655;42.590;23.364;2022-11-20T03:31:30;90853.47;;;15.69
71807;BMP280;59655;42.590;23.364;2022-11-20T03:33:56;90864.72;;;15.67
71807;BMP280;59655;42.590;23.364;2022-11-20T03:36:22;90837.16;;;15.64
71807;BMP280;59655;42.590;23.364;2022-11-20T03:38:47;90851.97;;;15.66
71807;BMP280;59655;42.590;23.364;2022-11-20T03:41:19;90845.31;;;15.67
71807;BMP280;59655;42.590;23.364;2022-11-20T03:43:53;90851.34;;;15.67
71807;BMP280;59655;42.590;23.364;2022-11-20T03:46:19;90862.78;;;15.68
71807;BMP280;59655;42.590;23.364;2022-11-20T03:48:45;90850.53;;;15.64
71807;BMP280;59655;42.590;23.364;2022-11-20T03:51:11;90834.41;;;15.62
71807;BMP280;59655;42.590;23.364;2022-11-20T03:53:38;90857.78;;;15.62
71807;BMP280;59655;42.590;23.364;2022-11-20T03:56:04;90851.59;;;15.59
71807;BMP280;59655;42.590;23.364;2022-11-20T03:58:29;90846.03;;;15.55
71807;BMP280;59655;42.590;23.364;2022-11-20T04:00:55;90853.47;;;15.57
71807;BMP280;59655;42.590;23.364;2022-11-20T04:03:20;90862.41;;;15.61
71807;BMP280;59655;42.590;23.364;2022-11-20T04:05:46;90856.38;;;15.61
71807;BMP280;59655;42.590;23.364;2022-11-20T04:08:11;90854.88;;;15.58
71807;BMP280;59655;42.590;23.364;2022-11-20T04:10:36;90861.59;;;15.59
71807;BMP280;59655;42.590;23.364;2022-11-20T04:13:03;90859.53;;;15.57
71807;BMP280;59655;42.590;23.364;2022-11-20T04:15:28;90854.03;;;15.55
71807;BMP280;59655;42.590;23.364;2022-11-20T04:17:54;90863.72;;;15.49
71807;BMP280;59655;42.590;23.364;2022-11-20T04:20:19;90853.72;;;15.49
71807;BMP280;59655;42.590;23.364;2022-11-20T04:22:45;90857.66;;;15.48
71807;BMP280;59655;42.590;23.364;2022-11-20T04:25:10;90869.53;;;15.45
71807;BMP280;59655;42.590;23.364;2022-11-20T04:27:35;90877.56;;;15.45
71807;BMP280;59655;42.590;23.364;2022-11-20T04:30:01;90886.28;;;15.46
71807;BMP280;59655;42.590;23.364;2022-11-20T04:32:26;90892.91;;;15.45
71807;BMP280;59655;42.590;23.364;2022-11-20T04:34:51;90874.66;;;15.41
71807;BMP280;59655;42.590;23.364;2022-11-20T04:37:17;90878.03;;;15.41
71807;BMP280;59655;42.590;23.364;2022-11-20T04:39:42;90887.91;;;15.39
71807;BMP280;59655;42.590;23.364;2022-11-20T04:42:09;90886.50;;;15.38
71807;BMP280;59655;42.590;23.364;2022-11-20T04:44:52;90904.41;;;15.35
71807;BMP280;59655;42.590;23.364;2022-11-20T04:47:18;90865.81;;;15.38
71807;BMP280;59655;42.590;23.364;2022-11-20T04:49:44;90886.28;;;15.34
71807;BMP280;59655;42.590;23.364;2022-11-20T04:52:09;90866.19;;;15.33
71807;BMP280;59655;42.590;23.364;2022-11-20T04:54:34;90852.81;;;15.33
71807;BMP280;59655;42.590;23.364;2022-11-20T04:57:00;90867.69;;;15.24
71807;BMP280;59655;42.590;23.364;2022-11-20T04:59:25;90869.66;;;15.24
71807;BMP280;59655;42.590;23.364;2022-11-20T05:01:50;90883.25;;;15.28
71807;BMP280;59655;42.590;23.364;2022-11-20T05:04:16;90861.88;;;15.28
71807;BMP280;59655;42.590;23.364;2022-11-20T05:06:41;90846.19;;;15.34
71807;BMP280;59655;42.590;23.364;2022-11-20T05:09:07;90861.66;;;15.24
71807;BMP280;59655;42.590;23.364;2022-11-20T05:11:32;90869.53;;;15.10
71807;BMP280;59655;42.590;23.364;2022-11-20T05:13:58;90858.00;;;14.95
71807;BMP280;59655;42.590;23.364;2022-11-20T05:16:25;90844.41;;;14.91
71807;BMP280;59655;42.590;23.364;2022-11-20T05:18:52;90874.03;;;14.95
71807;BMP280;59655;42.590;23.364;2022-11-20T05:21:18;90864.16;;;14.98
71807;BMP280;59655;42.590;23.364;2022-11-20T05:23:44;90857.22;;;14.93
71807;BMP280;59655;42.590;23.364;2022-11-20T05:26:18;90838.63;;;14.95
71807;BMP280;59655;42.590;23.364;2022-11-20T05:28:44;90823.63;;;14.90
71807;BMP280;59655;42.590;23.364;2022-11-20T05:31:13;90837.91;;;14.83
71807;BMP280;59655;42.590;23.364;2022-11-20T05:33:43;90854.88;;;14.87
71807;BMP280;59655;42.590;23.364;2022-11-20T05:36:10;90862.56;;;14.93
71807;BMP280;59655;42.590;23.364;2022-11-20T05:38:35;90863.34;;;14.84
71807;BMP280;59655;42.590;23.364;2022-11-20T05:41:12;90879.25;;;14.82
71807;BMP280;59655;42.590;23.364;2022-11-20T05:43:39;90867.75;;;14.79
71807;BMP280;59655;42.590;23.364;2022-11-20T05:46:06;90863.34;;;14.84
71807;BMP280;59655;42.590;23.364;2022-11-20T05:48:33;90869.63;;;14.88
71807;BMP280;59655;42.590;23.364;2022-11-20T05:51:00;90872.28;;;14.88
71807;BMP280;59655;42.590;23.364;2022-11-20T05:53:26;90838.63;;;14.83
71807;BMP280;59655;42.590;23.364;2022-11-20T05:56:10;90852.06;;;14.73
71807;BMP280;59655;42.590;23.364;2022-11-20T05:58:36;90852.97;;;14.66
71807;BMP280;59655;42.590;23.364;2022-11-20T06:03:34;90849.50;;;14.64
71807;BMP280;59655;42.590;23.364;2022-11-20T06:06:00;90850.28;;;14.55
71807;BMP280;59655;42.590;23.364;2022-11-20T06:08:26;90849.38;;;14.62
71807;BMP280;59655;42.590;23.364;2022-11-20T06:10:51;90836.72;;;14.62
71807;BMP280;59655;42.590;23.364;2022-11-20T06:13:17;90847.63;;;14.66
71807;BMP280;59655;42.590;23.364;2022-11-20T06:15:48;90850.53;;;14.59
71807;BMP280;59655;42.590;23.364;2022-11-20T06:18:13;90841.38;;;14.62
71807;BMP280;59655;42.590;23.364;2022-11-20T06:20:39;90845.66;;;14.67
71807;BMP280;59655;42.590;23.364;2022-11-20T06:23:04;90852.72;;;14.62
71807;BMP280;59655;42.590;23.364;2022-11-20T06:25:29;90848.22;;;14.65
71807;BMP280;59655;42.590;23.364;2022-11-20T06:27:55;90864.59;;;14.71
71807;BMP280;59655;42.590;23.364;2022-11-20T06:30:20;90868.78;;;14.74
71807;BMP280;59655;42.590;23.364;2022-11-20T06:32:45;90871.94;;;14.82
71807;BMP280;59655;42.590;23.364;2022-11-20T06:35:11;90875.66;;;14.77
71807;BMP280;59655;42.590;23.364;2022-11-20T06:37:37;90874.34;;;14.78
71807;BMP280;59655;42.590;23.364;2022-11-20T06:40:02;90868.09;;;14.85
71807;BMP280;59655;42.590;23.364;2022-11-20T06:42:28;90864.63;;;14.83
71807;BMP280;59655;42.590;23.364;2022-11-20T06:44:53;90881.91;;;14.82
71807;BMP280;59655;42.590;23.364;2022-11-20T06:47:18;90866.03;;;14.84
71807;BMP280;59655;42.590;23.364;2022-11-20T06:49:44;90877.63;;;14.88
71807;BMP280;59655;42.590;23.364;2022-11-20T06:52:09;90875.34;;;14.94
71807;BMP280;59655;42.590;23.364;2022-11-20T06:54:34;90891.72;;;15.01
71807;BMP280;59655;42.590;23.364;2022-11-20T06:57:00;90892.66;;;15.05
71807;BMP280;59655;42.590;23.364;2022-11-20T06:59:25;90894.84;;;15.09
71807;BMP280;59655;42.590;23.364;2022-11-20T07:01:50;90899.06;;;15.12
71807;BMP280;59655;42.590;23.364;2022-11-20T07:04:16;90895.31;;;15.17
71807;BMP280;59655;42.590;23.364;2022-11-20T07:06:41;90903.69;;;15.23
71807;BMP280;59655;42.590;23.364;2022-11-20T07:09:06;90896.63;;;15.28
71807;BMP280;59655;42.590;23.364;2022-11-20T07:11:32;90893.25;;;15.27
71807;BMP280;59655;42.590;23.364;2022-11-20T07:13:57;90883.47;;;15.20
71807;BMP280;59655;42.590;23.364;2022-11-20T07:16:22;90908.34;;;15.23
71807;BMP280;59655;42.590;23.364;2022-11-20T07:18:48;90893.00;;;15.23
71807;BMP280;59655;42.590;23.364;2022-11-20T07:21:13;90900.19;;;15.21
71807;BMP280;59655;42.590;23.364;2022-11-20T07:23:39;90903.00;;;15.23
71807;BMP280;59655;42.590;23.364;2022-11-20T07:26:09;90891.97;;;15.28
71807;BMP280;59655;42.590;23.364;2022-11-20T07:28:35;90889.16;;;15.26
71807;BMP280;59655;42.590;23.364;2022-11-20T07:31:00;90889.75;;;15.25
71807;BMP280;59655;42.590;23.364;2022-11-20T07:33:26;90896.63;;;15.28
71807;BMP280;59655;42.590;23.364;2022-11-20T07:35:51;90889.41;;;15.30
71807;BMP280;59655;42.590;23.364;2022-11-20T07:38:17;90889.88;;;15.27
71807;BMP280;59655;42.590;23.364;2022-11-20T07:40:42;90883.47;;;15.32
71807;BMP280;59655;42.590;23.364;2022-11-20T07:43:07;90882.56;;;15.27
71807;BMP280;59655;42.590;23.364;2022-11-20T07:45:33;90874.41;;;15.25
71807;BMP280;59655;42.590;23.364;2022-11-20T07:47:58;90885.09;;;15.25
71807;BMP280;59655;42.590;23.364;2022-11-20T07:50:24;90882.78;;;15.19
71807;BMP280;59655;42.590;23.364;2022-11-20T07:52:49;90860.00;;;15.18
71807;BMP280;59655;42.590;23.364;2022-11-20T07:55:15;90873.94;;;15.17
71807;BMP280;59655;42.590;23.364;2022-11-20T07:57:40;90862.00;;;15.18
71807;BMP280;59655;42.590;23.364;2022-11-20T08:00:08;90876.38;;;15.25
71807;BMP280;59655;42.590;23.364;2022-11-20T08:02:37;90876.50;;;15.27
71807;BMP280;59655;42.590;23.364;2022-11-20T08:05:04;90881.41;;;15.30
71807;BMP280;59655;42.590;23.364;2022-11-20T08:07:35;90888.94;;;15.34
71807;BMP280;59655;42.590;23.364;2022-11-20T08:10:00;90878.47;;;15.38
71807;BMP280;59655;42.590;23.364;2022-11-20T08:12:26;90883.25;;;15.39
71807;BMP280;59655;42.590;23.364;2022-11-20T08:15:10;90880.91;;;15.46
71807;BMP280;59655;42.590;23.364;2022-11-20T08:17:35;90877.09;;;15.49
71807;BMP280;59655;42.590;23.364;2022-11-20T08:20:00;90886.00;;;15.53
71807;BMP280;59655;42.590;23.364;2022-11-20T08:22:26;90888.34;;;15.59
71807;BMP280;59655;42.590;23.364;2022-11-20T08:24:51;90872.06;;;15.55
71807;BMP280;59655;42.590;23.364;2022-11-20T08:27:17;90872.28;;;15.59
71807;BMP280;59655;42.590;23.364;2022-11-20T08:29:42;90882.75;;;15.67
71807;BMP280;59655;42.590;23.364;2022-11-20T08:32:07;90884.59;;;15.76
71807;BMP280;59655;42.590;23.364;2022-11-20T08:34:33;90896.69;;;15.77
71807;BMP280;59655;42.590;23.364;2022-11-20T08:36:58;90907.50;;;15.79
71807;BMP280;59655;42.590;23.364;2022-11-20T08:39:24;90909.13;;;15.84
71807;BMP280;59655;42.590;23.364;2022-11-20T08:41:49;90908.31;;;15.81
71807;BMP280;59655;42.590;23.364;2022-11-20T08:44:14;90921.81;;;15.83
71807;BMP280;59655;42.590;23.364;2022-11-20T08:46:41;90942.16;;;15.77
71807;BMP280;59655;42.590;23.364;2022-11-20T08:49:10;90933.00;;;15.68
71807;BMP280;59655;42.590;23.364;2022-11-20T08:51:36;90932.66;;;15.62
71807;BMP280;59655;42.590;23.364;2022-11-20T08:54:03;90926.72;;;15.52
71807;BMP280;59655;42.590;23.364;2022-11-20T08:56:28;90929.75;;;15.46
71807;BMP280;59655;42.590;23.364;2022-11-20T08:58:54;90922.19;;;15.43
71807;BMP280;59655;42.590;23.364;2022-11-20T09:01:20;90928.69;;;15.39
71807;BMP280;59655;42.590;23.364;2022-11-20T09:03:46;90923.13;;;15.35
71807;BMP280;59655;42.590;23.364;2022-11-20T09:06:12;90928.13;;;15.17
71807;BMP280;59655;42.590;23.364;2022-11-20T09:08:38;90935.84;;;15.13
71807;BMP280;59655;42.590;23.364;2022-11-20T09:11:04;90931.00;;;15.10
71807;BMP280;59655;42.590;23.364;2022-11-20T09:13:31;90931.34;;;15.04
71807;BMP280;59655;42.590;23.364;2022-11-20T09:16:06;90927.03;;;15.11
71807;BMP280;59655;42.590;23.364;2022-11-20T09:18:33;90929.72;;;15.11
71807;BMP280;59655;42.590;23.364;2022-11-20T09:20:59;90937.38;;;15.16
71807;BMP280;59655;42.590;23.364;2022-11-20T09:23:26;90925.91;;;15.26
71807;BMP280;59655;42.590;23.364;2022-11-20T09:25:52;90930.53;;;15.25
71807;BMP280;59655;42.590;23.364;2022-11-20T09:28:18;90931.03;;;15.33
71807;BMP280;59655;42.590;23.364;2022-11-20T09:30:44;90924.97;;;15.33
71807;BMP280;59655;42.590;23.364;2022-11-20T09:33:09;90937.50;;;15.42
71807;BMP280;59655;42.590;23.364;2022-11-20T09:35:35;90938.69;;;15.39
71807;BMP280;59655;42.590;23.364;2022-11-20T09:38:07;90928.56;;;15.37
71807;BMP280;59655;42.590;23.364;2022-11-20T09:40:34;90920.56;;;15.37
71807;BMP280;59655;42.590;23.364;2022-11-20T09:43:24;90909.97;;;15.28
71807;BMP280;59655;42.590;23.364;2022-11-20T09:46:02;90913.56;;;15.32
71807;BMP280;59655;42.590;23.364;2022-11-20T09:54:13;90918.44;;;15.48
71807;BMP280;59655;42.590;23.364;2022-11-20T09:56:42;90919.63;;;15.56
71807;BMP280;59655;42.590;23.364;2022-11-20T09:59:39;90916.25;;;15.44
71807;BMP280;59655;42.590;23.364;2022-11-20T10:02:15;90907.66;;;15.34
71807;BMP280;59655;42.590;23.364;2022-11-20T10:04:47;90919.41;;;15.52
71807;BMP280;59655;42.590;23.364;2022-11-20T10:09:53;90909.97;;;15.51
71807;BMP280;59655;42.590;23.364;2022-11-20T10:15:42;90890.69;;;15.53
71807;BMP280;59655;42.590;23.364;2022-11-20T10:26:28;90885.69;;;15.47
71807;BMP280;59655;42.590;23.364;2022-11-20T10:29:17;90880.56;;;15.51
71807;BMP280;59655;42.590;23.364;2022-11-20T10:31:45;90869.97;;;15.65
71807;BMP280;59655;42.590;23.364;2022-11-20T10:37:25;90888.53;;;15.86
71807;BMP280;59655;42.590;23.364;2022-11-20T10:39:59;90886.91;;;15.93
71807;BMP280;59655;42.590;23.364;2022-11-20T10:43:39;90885.28;;;15.88
71807;BMP280;59655;42.590;23.364;2022-11-20T10:48:29;90883.50;;;16.04
71807;BMP280;59655;42.590;23.364;2022-11-20T10:56:21;90926.31;;;16.04
71807;BMP280;59655;42.590;23.364;2022-11-20T10:59:15;90906.44;;;15.96
71807;BMP280;59655;42.590;23.364;2022-11-20T11:01:44;90901.81;;;15.84
71807;BMP280;59655;42.590;23.364;2022-11-20T11:07:06;90932.50;;;15.95
71807;BMP280;59655;42.590;23.364;2022-11-20T11:09:35;90932.50;;;15.95
71807;BMP280;59655;42.590;23.364;2022-11-20T11:12:07;90939.63;;;15.91
71807;BMP280;59655;42.590;23.364;2022-11-20T11:14:49;90939.03;;;15.80
71807;BMP280;59655;42.590;23.364;2022-11-20T11:19:56;90961.66;;;14.64
71807;BMP280;59655;42.590;23.364;2022-11-20T11:22:22;90963.13;;;14.67
71807;BMP280;59655;42.590;23.364;2022-11-20T11:24:53;90952.13;;;14.39
71807;BMP280;59655;42.590;23.364;2022-11-20T11:27:19;90932.47;;;14.13
71807;BMP280;59655;42.590;23.364;2022-11-20T11:29:47;90945.50;;;14.19
71807;BMP280;59655;42.590;23.364;2022-11-20T11:32:19;90960.94;;;14.20
71807;BMP280;59655;42.590;23.364;2022-11-20T11:35:02;90983.41;;;14.17
71807;BMP280;59655;42.590;23.364;2022-11-20T11:37:35;90971.97;;;14.05
71807;BMP280;59655;42.590;23.364;2022-11-20T11:40:03;90968.63;;;13.73
71807;BMP280;59655;42.590;23.364;2022-11-20T11:42:30;90951.44;;;13.55
71807;BMP280;59655;42.590;23.364;2022-11-20T11:44:58;90943.91;;;13.42
71807;BMP280;59655;42.590;23.364;2022-11-20T11:47:43;90928.59;;;13.11
71807;BMP280;59655;42.590;23.364;2022-11-20T11:52:59;90906.78;;;12.83
71807;BMP280;59655;42.590;23.364;2022-11-20T11:55:44;90912.13;;;12.64
71807;BMP280;59655;42.590;23.364;2022-11-20T12:00:55;90902.59;;;12.32
71807;BMP280;59655;42.590;23.364;2022-11-20T12:03:35;90897.84;;;12.30
71807;BMP280;59655;42.590;23.364;2022-11-20T12:06:06;90909.88;;;12.21
71807;BMP280;59655;42.590;23.364;2022-11-20T12:08:44;90908.31;;;12.18
71807;BMP280;59655;42.590;23.364;2022-11-20T12:11:21;90891.41;;;12.14
71807;BMP280;59655;42.590;23.364;2022-11-20T12:13:58;90909.13;;;11.92
71807;BMP280;59655;42.590;23.364;2022-11-20T12:16:27;90917.38;;;11.96
71807;BMP280;59655;42.590;23.364;2022-11-20T12:18:53;90898.91;;;11.88
71807;BMP280;59655;42.590;23.364;2022-11-20T12:39:57;90885.38;;;11.47
71807;BMP280;59655;42.590;23.364;2022-11-20T12:48:21;90808.53;;;11.88
71807;BMP280;59655;42.590;23.364;2022-11-20T12:56:34;90776.91;;;12.21
71807;BMP280;59655;42.590;23.364;2022-11-20T13:02:18;90761.88;;;12.45
71807;BMP280;59655;42.590;23.364;2022-11-20T13:07:30;90755.13;;;12.64
71807;BMP280;59655;42.590;23.364;2022-11-20T13:09:56;90757.47;;;12.69
71807;BMP280;59655;42.590;23.364;2022-11-20T13:12:34;90769.47;;;12.80
71807;BMP280;59655;42.590;23.364;2022-11-20T13:15:11;90780.94;;;12.92
71807;BMP280;59655;42.590;23.364;2022-11-20T13:17:59;90801.22;;;12.98
71807;BMP280;59655;42.590;23.364;2022-11-20T13:20:25;90816.47;;;13.07
71807;BMP280;59655;42.590;23.364;2022-11-20T13:22:53;90861.38;;;12.81
71807;BMP280;59655;42.590;23.364;2022-11-20T13:25:44;90861.03;;;12.36
71807;BMP280;59655;42.590;23.364;2022-11-20T13:30:36;90874.31;;;12.56
71807;BMP280;59655;42.590;23.364;2022-11-20T13:33:08;90869.56;;;12.64
71807;BMP280;59655;42.590;23.364;2022-11-20T13:35:41;90871.34;;;12.61
71807;BMP280;59655;42.590;23.364;2022-11-20T13:38:13;90870.25;;;12.64
71807;BMP280;59655;42.590;23.364;2022-11-20T13:40:57;90886.75;;;12.63
71807;BMP280;59655;42.590;23.364;2022-11-20T13:46:02;90885.66;;;12.66
71807;BMP280;59655;42.590;23.364;2022-11-20T13:48:48;90877.13;;;12.38
71807;BMP280;59655;42.590;23.364;2022-11-20T13:56:39;90896.88;;;12.35
71807;BMP280;59655;42.590;23.364;2022-11-20T14:02:12;90880.22;;;12.44
71807;BMP280;59655;42.590;23.364;2022-11-20T14:04:43;90882.84;;;12.64
71807;BMP280;59655;42.590;23.364;2022-11-20T14:07:09;90889.31;;;12.51
71807;BMP280;59655;42.590;23.364;2022-11-20T14:09:35;90891.53;;;12.55
71807;BMP280;59655;42.590;23.364;2022-11-20T14:12:02;90875.59;;;12.35
71807;BMP280;59655;42.590;23.364;2022-11-20T14:14:30;90862.97;;;12.45
71807;BMP280;59655;42.590;23.364;2022-11-20T14:17:06;90871.50;;;12.24
71807;BMP280;59655;42.590;23.364;2022-11-20T14:19:32;90877.25;;;12.21
71807;BMP280;59655;42.590;23.364;2022-11-20T14:22:08;90882.56;;;12.21
71807;BMP280;59655;42.590;23.364;2022-11-20T14:24:34;90881.06;;;12.37
71807;BMP280;59655;42.590;23.364;2022-11-20T14:27:00;90875.31;;;12.41
71807;BMP280;59655;42.590;23.364;2022-11-20T14:29:30;90862.56;;;12.49
71807;BMP280;59655;42.590;23.364;2022-11-20T14:31:58;90871.38;;;12.52
71807;BMP280;59655;42.590;23.364;2022-11-20T14:34:32;90858.78;;;12.52
71807;BMP280;59655;42.590;23.364;2022-11-20T14:37:03;90877.97;;;12.50
71807;BMP280;59655;42.590;23.364;2022-11-20T14:39:32;90862.84;;;12.43
71807;BMP280;59655;42.590;23.364;2022-11-20T14:41:58;90862.56;;;12.59
71807;BMP280;59655;42.590;23.364;2022-11-20T14:44:30;90876.66;;;12.61
71807;BMP280;59655;42.590;23.364;2022-11-20T14:46:57;90858.03;;;12.61
71807;BMP280;59655;42.590;23.364;2022-11-20T14:49:24;90869.97;;;12.60
71807;BMP280;59655;42.590;23.364;2022-11-20T14:52:02;90872.50;;;12.58
71807;BMP280;59655;42.590;23.364;2022-11-20T14:54:49;90880.50;;;12.48
71807;BMP280;59655;42.590;23.364;2022-11-20T14:59:49;90888.72;;;12.53
71807;BMP280;59655;42.590;23.364;2022-11-20T15:02:15;90882.03;;;12.52
71807;BMP280;59655;42.590;23.364;2022-11-20T15:07:10;90891.41;;;12.33
71807;BMP280;59655;42.590;23.364;2022-11-20T15:09:36;90896.31;;;12.46
71807;BMP280;59655;42.590;23.364;2022-11-20T15:12:02;90903.16;;;12.49
71807;BMP280;59655;42.590;23.364;2022-11-20T15:14:30;90903.75;;;12.58
71807;BMP280;59655;42.590;23.364;2022-11-20T15:16:56;90899.94;;;12.51
71807;BMP280;59655;42.590;23.364;2022-11-20T15:19:25;90903.59;;;12.56
71807;BMP280;59655;42.590;23.364;2022-11-20T15:21:52;90915.19;;;12.02
71807;BMP280;59655;42.590;23.364;2022-11-20T15:24:17;90912.94;;;11.98
71807;BMP280;59655;42.590;23.364;2022-11-20T15:26:43;90926.34;;;11.91
71807;BMP280;59655;42.590;23.364;2022-11-20T15:29:11;90916.72;;;12.05
71807;BMP280;59655;42.590;23.364;2022-11-20T15:31:37;90920.88;;;11.89
71807;BMP280;59655;42.590;23.364;2022-11-20T15:34:10;90928.59;;;11.48
71807;BMP280;59655;42.590;23.364;2022-11-20T15:36:36;90941.56;;;11.16
71807;BMP280;59655;42.590;23.364;2022-11-20T15:39:01;90943.06;;;11.37
71807;BMP280;59655;42.590;23.364;2022-11-20T15:41:27;90945.03;;;11.64
71807;BMP280;59655;42.590;23.364;2022-11-20T15:43:53;90965.56;;;11.63
71807;BMP280;59655;42.590;23.364;2022-11-20T15:46:25;90979.91;;;11.50
71807;BMP280;59655;42.590;23.364;2022-11-20T15:48:54;90986.56;;;11.42
71807;BMP280;59655;42.590;23.364;2022-11-20T15:53:51;90991.03;;;11.39